Date,TemperatureHighF,TemperatureAvgF,TemperatureLowF,DewpointHighF,DewpointAvgF,DewpointLowF,HumidityHigh,HumidityAvg,HumidityLow,PressureMaxIn,PressureMinIn,WindSpeedMaxMPH,WindSpeedAvgMPH,GustSpeedMaxMPH,PrecipitationSumIn
2013-1-1,23,12,4,10,7,1,90,78,52,0.00,40.00,7,3,9,0.00
2013-1-2,21,7,1,11,3,-2,90,82,57,0.00,40.00,7,3,7,0.00
2013-1-3,23,8,-1,9,2,-5,88,77,45,0.00,40.00,6,3,7,0.00
2013-1-4,26,6,-3,8,0,-6,89,79,40,0.00,40.00,8,2,9,0.00
2013-1-5,28,9,-2,12,3,-6,89,77,40,0.00,40.00,9,3,9,0.00
2013-1-6,29,21,8,16,12,4,90,67,55,0.00,40.00,7,3,7,0.00
2013-1-7,33,19,8,15,8,3,84,65,33,0.00,40.00,9,4,12,0.00
2013-1-8,36,27,16,23,18,12,86,70,52,0.00,40.00,8,3,8,0.00
2013-1-9,42,27,10,24,18,8,93,72,43,0.00,40.00,17,4,23,0.00
2013-1-10,40,33,21,29,21,17,96,64,41,0.00,40.00,24,12,33,0.00
2013-1-11,20,16,8,17,11,5,89,81,71,0.00,40.00,11,4,15,0.00
2013-1-12,19,9,2,9,3,-5,90,76,59,0.00,40.00,13,4,16,0.00
2013-1-13,11,0,-10,-2,-7,-14,84,74,50,0.00,40.00,7,2,7,0.00
2013-1-14,10,-4,-13,-3,-11,-19,81,73,49,0.00,40.00,7,3,9,0.00
2013-1-15,17,8,2,8,2,-3,87,75,56,0.00,40.00,8,3,11,0.00
2013-1-16,24,12,6,11,6,3,88,79,55,0.00,40.00,8,3,8,0.00
2013-1-17,29,12,1,13,6,-2,88,78,50,0.00,40.00,8,3,8,0.00
2013-1-18,30,13,0,14,7,-3,89,76,48,0.00,40.00,9,3,9,0.00
2013-1-19,33,15,1,14,8,-2,91,75,44,0.00,40.00,8,3,8,0.00
2013-1-20,33,14,2,14,7,-1,87,74,41,0.00,40.00,10,4,11,0.00
2013-1-21,36,15,4,14,7,1,90,72,34,0.00,40.00,8,4,9,0.00
2013-1-22,39,17,3,17,8,-1,86,69,32,0.00,40.00,9,4,9,0.00
2013-1-23,47,25,9,23,13,5,89,64,24,0.00,40.00,11,5,14,0.00
2013-1-24,42,36,28,37,30,18,93,81,58,0.00,40.00,11,4,13,0.00
2013-1-25,41,35,30,36,32,28,95,91,77,0.00,40.00,6,2,6,0.00
2013-1-26,38,32,26,35,31,25,98,95,85,0.00,40.00,7,3,8,0.00
2013-1-27,41,34,27,36,31,21,97,88,54,0.00,40.00,25,8,32,0.00
2013-1-28,26,22,15,24,12,4,92,68,43,0.00,40.00,21,8,24,0.00
2013-1-29,27,22,11,19,14,8,91,73,54,0.00,40.00,14,6,20,0.00
2013-1-30,30,24,17,28,21,14,95,88,77,0.00,40.00,7,2,7,0.00
2013-1-31,45,34,26,31,27,23,96,75,43,0.00,40.00,7,3,9,0.00
2013-2-1,44,30,18,26,22,16,93,74,44,0.00,40.00,17,4,20,0.00
2013-2-2,38,24,14,22,16,10,85,71,46,0.00,40.00,9,5,11,0.00
2013-2-3,42,27,20,20,17,13,84,65,34,0.00,40.00,8,4,9,0.00
2013-2-4,43,24,13,20,14,8,80,67,35,0.00,40.00,11,4,11,0.00
2013-2-5,43,30,17,24,18,13,89,64,40,0.00,40.00,8,4,9,0.00
2013-2-6,44,35,22,23,19,8,75,52,22,0.00,40.00,20,8,22,0.00
2013-2-7,44,27,10,20,14,5,86,59,26,0.00,40.00,11,5,13,0.00
2013-2-8,40,30,24,29,22,16,93,73,46,0.00,40.00,15,6,26,0.00
2013-2-9,31,25,18,25,21,16,95,84,64,0.00,40.00,11,5,12,0.00
2013-2-10,31,23,16,20,16,12,91,76,52,0.00,40.00,13,6,18,0.00
2013-2-11,28,17,9,16,9,3,85,70,53,0.00,40.00,13,8,16,0.00
2013-2-12,27,17,5,19,10,1,86,73,55,0.00,40.00,12,4,14,0.00
2013-2-13,36,26,16,23,20,14,92,78,54,0.00,40.00,7,3,9,0.00
2013-2-14,39,30,20,27,21,15,94,71,42,0.00,40.00,16,7,20,0.00
2013-2-15,41,25,12,22,18,10,91,74,43,0.00,40.00,11,4,12,0.00
2013-2-16,49,27,12,23,15,9,88,64,22,0.00,40.00,11,5,11,0.00
2013-2-17,42,28,18,22,15,11,75,60,36,0.00,40.00,28,10,33,0.00
2013-2-18,36,22,9,16,10,5,84,64,28,0.00,40.00,9,5,11,0.00
2013-2-19,46,31,20,15,11,7,72,45,22,0.00,40.00,18,7,23,0.00
2013-2-20,42,32,27,28,20,13,89,62,36,0.00,40.00,16,8,19,0.00
2013-2-21,32,27,21,24,17,10,79,65,49,0.00,40.00,18,10,21,0.00
2013-2-22,32,21,13,18,13,9,87,71,45,0.00,40.00,8,4,11,0.00
2013-2-23,30,22,15,28,16,10,93,78,47,0.00,40.00,12,5,23,0.00
2013-2-24,31,23,13,16,12,8,90,65,46,0.00,40.00,21,13,28,0.00
2013-2-25,35,20,4,16,8,-1,80,62,35,0.00,40.00,25,9,30,0.00
2013-2-26,32,23,17,17,12,6,85,64,36,0.00,40.00,21,8,24,0.00
2013-2-27,35,18,6,14,8,0,78,64,34,0.00,40.00,11,6,13,0.00
2013-2-28,43,25,9,22,11,3,79,58,27,0.00,40.00,9,4,10,0.00
2013-3-1,49,35,26,28,24,20,85,64,42,0.00,40.00,17,5,19,0.00
2013-3-2,56,37,22,29,22,17,85,60,25,0.00,40.00,11,5,12,0.00
2013-3-3,40,36,31,36,30,22,94,78,56,0.00,40.00,10,5,11,0.00
2013-3-4,37,30,16,33,16,2,96,57,22,0.00,40.00,28,10,30,0.00
2013-3-5,53,29,10,19,11,5,83,51,18,0.00,40.00,15,5,18,0.00
2013-3-6,54,42,27,31,19,15,73,42,24,0.00,40.00,25,11,34,0.00
2013-3-7,52,41,34,31,26,16,79,59,24,0.00,40.00,22,11,26,0.00
2013-3-8,46,38,33,34,31,24,95,76,42,0.00,40.00,15,5,20,0.00
2013-3-9,45,38,31,32,24,13,84,59,37,0.00,40.00,28,18,39,0.00
2013-3-10,31,29,26,16,14,14,63,55,48,0.00,40.00,16,10,18,0.00
2013-3-11,50,36,24,28,21,17,79,57,33,0.00,40.00,19,5,25,0.00
2013-3-12,55,43,34,32,28,26,80,58,33,0.00,40.00,12,5,16,0.00
2013-3-13,63,43,25,31,26,22,88,57,21,0.00,40.00,10,5,13,0.00
2013-3-14,70,47,27,29,25,18,83,48,14,0.00,40.00,17,6,20,0.00
2013-3-15,68,54,39,31,22,12,62,32,12,0.00,40.00,17,7,20,0.00
2013-3-16,57,45,36,27,19,2,63,39,12,0.00,40.00,18,7,26,0.00
2013-3-17,44,38,30,33,21,8,87,52,27,0.00,40.00,24,11,38,0.00
2013-3-18,48,36,28,23,16,8,76,45,19,0.00,40.00,20,7,25,0.00
2013-3-19,52,38,26,19,8,-13,64,35,7,0.00,40.00,16,7,17,0.00
2013-3-20,46,36,24,38,25,8,90,66,40,0.00,40.00,15,4,17,0.00
2013-3-21,40,35,25,36,18,-6,93,55,14,0.00,40.00,32,10,43,0.00
2013-3-22,31,24,19,25,15,7,92,68,34,0.00,40.00,20,7,24,0.00
2013-3-23,32,22,15,19,13,6,88,71,36,0.00,40.00,19,5,24,0.00
2013-3-24,34,22,11,21,11,5,83,63,35,0.00,40.00,19,6,24,0.00
2013-3-25,48,30,12,22,11,4,74,49,25,0.00,40.00,12,6,15,0.00
2013-3-26,57,40,24,31,21,15,78,52,19,0.00,40.00,22,7,26,0.00
2013-3-27,60,42,26,30,23,14,88,54,17,0.00,40.00,17,5,20,0.00
2013-3-28,64,47,30,28,22,17,72,41,17,0.00,40.00,18,6,23,0.00
2013-3-29,62,48,32,33,27,21,79,47,22,0.00,40.00,15,6,20,0.00
2013-3-30,62,46,31,30,24,-100,80,48,18,0.00,40.00,17,6,24,0.00
2013-3-31,66,48,29,26,21,10,75,41,10,0.00,40.00,16,6,18,0.00
2013-4-1,52,44,36,39,35,28,91,71,39,0.00,40.00,21,6,30,0.00
2013-4-2,55,42,32,37,32,24,96,70,31,0.00,40.00,29,11,34,0.00
2013-4-3,64,46,30,35,29,18,90,57,18,0.00,40.00,13,4,16,0.00
2013-4-4,67,49,30,33,27,22,82,48,19,0.00,40.00,18,6,22,0.00
2013-4-5,57,49,38,40,32,24,83,54,29,0.00,40.00,18,8,27,0.00
2013-4-6,56,42,31,38,30,24,82,63,28,0.00,40.00,19,5,25,0.00
2013-4-7,57,44,29,35,28,20,89,58,25,0.00,40.00,17,5,32,0.00
2013-4-8,52,40,27,35,30,18,92,70,25,0.00,40.00,34,15,41,0.00
2013-4-9,31,25,19,23,14,9,84,63,39,0.00,40.00,34,23,42,0.00
2013-4-10,44,26,17,23,13,11,75,58,30,0.00,40.00,25,10,36,0.00
2013-4-11,51,45,37,38,29,20,88,55,29,0.00,40.00,18,7,22,0.00
2013-4-12,57,41,26,32,25,15,90,57,20,0.00,40.00,15,5,22,0.00
2013-4-13,53,40,28,38,28,19,82,63,31,0.00,40.00,27,9,35,0.00
2013-4-14,45,36,24,21,6,-4,63,29,14,0.00,40.00,22,9,26,0.00
2013-4-15,44,34,28,32,26,17,95,72,35,0.00,40.00,17,6,21,0.00
2013-4-16,37,32,29,29,22,14,92,66,45,0.00,40.00,27,14,31,0.00
2013-4-17,39,30,23,24,12,9,80,49,29,0.00,40.00,27,16,34,0.00
2013-4-18,45,32,17,14,7,-2,76,39,15,0.00,40.00,24,10,34,0.00
2013-4-19,51,36,21,31,20,12,74,55,31,0.00,40.00,22,5,25,0.00
2013-4-20,50,41,34,37,32,23,93,72,35,0.00,40.00,17,4,22,0.00
2013-4-21,59,44,28,30,25,18,85,53,22,0.00,40.00,19,6,29,0.00
2013-4-22,49,42,33,33,24,9,80,50,23,0.00,40.00,26,12,34,0.00
2013-4-23,49,37,25,24,13,-1,71,42,13,0.00,40.00,18,11,23,0.00
2013-4-24,58,42,27,19,8,-2,53,28,9,0.00,40.00,16,7,23,0.00
2013-4-25,62,45,25,19,13,-2,67,33,11,0.00,40.00,16,6,21,0.00
2013-4-26,66,48,29,22,14,6,54,27,12,0.00,40.00,16,6,18,0.00
2013-4-27,69,51,32,25,19,10,67,32,10,0.00,40.00,15,7,18,0.00
2013-4-28,73,55,35,31,25,19,70,36,14,0.00,40.00,20,7,25,0.00
2013-4-29,70,56,41,33,27,22,62,35,17,0.00,40.00,20,10,30,0.00
2013-4-30,61,52,38,29,18,-2,39,26,14,0.00,40.00,25,13,29,0.00
2013-5-1,46,38,28,19,10,-2,57,31,18,0.00,40.00,23,12,31,0.00
2013-5-2,61,42,23,21,14,4,74,38,11,0.00,40.00,12,6,15,0.00
2013-5-3,68,49,27,23,15,2,70,32,8,0.00,40.00,14,6,17,0.00
2013-5-4,67,52,36,30,18,12,48,28,12,0.00,40.00,24,8,27,0.00
2013-5-5,70,55,43,32,27,19,55,36,15,0.00,40.00,22,11,27,0.00
2013-5-6,64,52,43,41,33,22,79,50,19,0.00,40.00,25,7,33,0.00
2013-5-7,62,47,35,41,36,27,94,69,28,0.00,40.00,24,6,29,0.00
2013-5-8,58,46,35,43,38,33,94,75,47,0.00,40.00,21,5,24,0.00
2013-5-9,69,50,35,44,35,27,95,62,23,0.00,40.00,19,5,21,0.00
2013-5-10,73,56,41,37,28,-100,68,40,14,0.00,40.00,23,8,30,0.00
2013-5-11,76,58,39,36,29,-100,76,39,15,0.00,40.00,11,5,20,0.00
2013-5-12,79,61,39,35,30,25,68,35,13,0.00,40.00,16,6,23,0.00
2013-5-13,85,64,42,40,33,27,72,36,12,0.00,40.00,16,6,24,0.00
2013-5-14,83,65,47,42,33,23,59,34,12,0.00,40.00,14,6,20,0.00
2013-5-15,80,63,45,39,33,24,65,35,13,0.00,40.00,23,7,27,0.00
2013-5-16,75,59,44,42,21,-100,77,39,16,0.00,40.00,29,8,41,0.00
2013-5-17,66,55,49,42,35,-100,73,51,24,0.00,40.00,19,8,27,0.00
2013-5-18,59,49,42,46,39,27,92,70,31,0.00,40.00,14,6,20,0.00
2013-5-19,59,47,37,40,35,25,91,66,27,0.00,40.00,24,8,39,0.00
2013-5-20,61,50,42,42,39,35,91,68,41,0.00,40.00,18,5,23,0.00
2013-5-21,69,53,36,42,34,22,93,56,17,0.00,40.00,12,5,17,0.00
2013-5-22,78,60,41,43,30,19,73,39,12,0.00,40.00,24,10,32,0.00
2013-5-23,72,56,38,37,29,22,69,40,17,0.00,40.00,29,16,37,0.00
2013-5-24,71,54,34,30,24,7,74,37,8,0.00,40.00,18,7,24,0.00
2013-5-25,75,58,37,34,25,16,70,33,11,0.00,40.00,21,8,28,0.00
2013-5-26,76,60,45,38,25,15,54,30,10,0.00,40.00,20,8,26,0.00
2013-5-27,71,60,47,41,31,24,54,33,19,0.00,40.00,19,8,23,0.00
2013-5-28,61,51,42,43,36,25,86,58,28,0.00,40.00,20,7,27,0.00
2013-5-29,60,48,39,42,36,27,92,67,29,0.00,40.00,20,5,31,0.00
2013-5-30,62,49,37,40,32,22,92,58,22,0.00,40.00,19,5,26,0.00
2013-5-31,64,50,36,35,25,14,81,42,15,0.00,40.00,28,10,32,0.00
2013-6-1,76,54,32,37,25,14,76,39,11,0.00,40.00,11,5,16,0.00
2013-6-2,84,62,37,37,30,19,81,38,9,0.00,40.00,21,8,27,0.00
2013-6-3,75,65,51,35,21,4,49,21,6,0.00,40.00,17,8,22,0.00
2013-6-4,77,58,37,32,25,18,69,32,13,0.00,40.00,21,6,29,0.00
2013-6-5,77,61,43,37,31,24,69,36,14,0.00,40.00,18,7,23,0.00
2013-6-6,82,62,43,39,33,21,67,37,10,0.00,40.00,13,5,17,0.00
2013-6-7,83,64,45,43,36,27,71,39,13,0.00,40.00,16,5,22,0.00
2013-6-8,82,67,47,48,35,23,74,37,12,0.00,40.00,25,10,28,0.00
2013-6-9,90,67,44,45,37,30,70,37,12,0.00,40.00,17,5,20,0.00
2013-6-10,90,71,48,44,33,21,70,31,8,0.00,40.00,20,7,30,0.00
2013-6-11,82,67,49,42,29,17,59,28,10,0.00,40.00,21,9,28,0.00
2013-6-12,84,66,43,43,33,23,69,33,11,0.00,40.00,18,6,26,0.00
2013-6-13,84,74,59,44,30,17,44,21,8,0.00,40.00,34,15,40,0.00
2013-6-14,76,60,43,37,31,21,71,37,13,0.00,40.00,19,8,26,0.00
2013-6-15,82,61,41,37,29,17,71,35,9,0.00,40.00,16,6,27,0.00
2013-6-16,85,64,38,35,27,19,76,32,9,0.00,40.00,19,7,25,0.00
2013-6-17,86,66,42,33,26,13,64,27,6,0.00,40.00,13,5,18,0.00
2013-6-18,85,66,40,33,26,17,69,27,8,0.00,40.00,18,6,24,0.00
2013-6-19,76,65,48,34,23,15,53,22,11,0.00,40.00,27,13,35,0.00
2013-6-20,74,51,37,29,24,17,61,37,13,0.00,40.00,15,5,22,0.00
2013-6-21,77,74,70,32,26,23,24,17,14,0.00,40.00,17,11,25,0.00
2013-6-22,75,67,55,35,29,22,46,25,13,0.00,40.00,18,9,23,0.00
2013-6-23,82,62,38,38,30,22,74,36,11,0.00,40.00,15,6,18,0.00
2013-6-24,79,66,50,47,34,26,68,35,15,0.00,40.00,20,10,35,0.00
2013-6-25,81,62,46,47,42,35,85,53,20,0.00,40.00,18,7,22,0.00
2013-6-26,89,74,48,48,42,35,75,37,15,0.00,40.00,19,8,22,0.00
2013-6-27,97,75,51,48,42,31,69,36,9,0.00,40.00,13,6,16,0.00
2013-6-28,96,77,60,49,43,32,59,33,10,0.00,40.00,13,5,21,0.00
2013-6-29,96,78,58,47,41,28,57,30,9,0.00,40.00,15,6,18,0.00
2013-6-30,95,81,63,47,39,29,52,24,10,0.00,40.00,18,8,23,0.00
2013-7-1,96,78,54,46,38,29,61,28,9,0.00,40.00,14,6,18,0.00
2013-7-2,95,78,59,45,39,32,56,27,11,0.00,40.00,17,8,23,0.00
2013-7-3,93,76,60,50,43,37,51,32,14,0.00,40.00,14,6,21,0.00
2013-7-4,86,73,59,59,52,44,87,52,23,0.00,40.00,22,7,27,0.00
2013-7-5,88,71,57,58,53,43,90,58,21,0.00,40.00,11,4,13,0.00
2013-7-6,86,65,54,56,52,40,91,67,23,0.00,40.00,21,6,30,0.00
2013-7-7,86,66,53,56,52,44,90,65,24,0.00,40.00,22,5,27,0.00
2013-7-8,87,66,52,54,47,-100,90,58,18,0.00,40.00,20,6,29,0.00
2013-7-9,91,72,51,53,43,29,80,43,11,0.00,40.00,15,5,17,0.00
2013-7-10,93,69,49,43,33,-100,67,32,8,0.00,40.00,11,4,15,0.00
2013-7-11,87,70,55,55,45,35,74,44,19,0.00,40.00,15,5,26,0.00
2013-7-12,79,64,57,58,54,48,90,72,34,0.00,40.00,10,4,14,0.00
2013-7-13,84,71,59,58,53,47,84,56,27,0.00,40.00,22,7,27,0.00
2013-7-14,87,70,51,56,49,38,89,52,18,0.00,40.00,15,4,21,0.00
2013-7-15,92,73,59,53,49,42,70,45,17,0.00,40.00,16,4,19,0.00
2013-7-16,89,72,60,58,52,43,74,53,22,0.00,40.00,20,6,30,0.00
2013-7-17,87,70,58,60,55,48,91,62,27,0.00,40.00,16,5,25,0.00
2013-7-18,90,71,53,58,52,38,93,58,16,0.00,40.00,14,5,18,0.00
2013-7-19,91,72,55,55,45,27,79,46,10,0.00,40.00,13,4,19,0.00
2013-7-20,92,72,53,48,38,-100,62,34,10,0.00,40.00,11,5,18,0.00
2013-7-21,93,72,50,46,37,24,67,32,8,0.00,40.00,13,5,15,0.00
2013-7-22,93,73,50,49,37,27,61,31,9,0.00,40.00,14,5,25,0.00
2013-7-23,94,73,52,43,35,25,61,28,8,0.00,40.00,14,6,17,0.00
2013-7-24,83,68,58,53,42,32,65,40,24,0.00,40.00,11,5,20,0.00
2013-7-25,90,71,54,53,45,35,79,45,14,0.00,40.00,14,5,18,0.00
2013-7-26,91,71,52,47,40,28,71,38,10,0.00,40.00,13,4,17,0.00
2013-7-27,78,68,56,56,48,36,72,49,31,0.00,40.00,20,7,24,0.00
2013-7-28,79,64,52,56,51,44,90,64,33,0.00,40.00,22,5,34,0.00
2013-7-29,83,65,54,53,48,40,81,57,22,0.00,40.00,15,5,25,0.00
2013-7-30,86,67,50,50,44,36,84,50,17,0.00,40.00,15,6,22,0.00
2013-7-31,90,73,52,46,38,26,67,34,10,0.00,40.00,15,6,22,0.00
2013-8-1,88,72,56,52,47,40,62,41,22,0.00,40.00,28,10,34,0.00
2013-8-2,87,70,55,52,42,25,79,44,11,0.00,40.00,17,7,25,0.00
2013-8-3,87,72,54,44,37,24,62,32,11,0.00,40.00,19,8,29,0.00
2013-8-4,89,70,50,47,39,30,65,35,14,0.00,40.00,13,5,21,0.00
2013-8-5,90,74,56,45,38,30,60,30,12,0.00,40.00,20,6,33,0.00
2013-8-6,87,71,54,47,40,26,66,35,13,0.00,40.00,20,4,27,0.00
2013-8-7,87,65,51,50,41,28,73,45,13,0.00,40.00,21,5,40,0.00
2013-8-8,81,62,48,51,44,34,81,55,19,0.00,40.00,24,5,31,0.00
2013-8-9,85,62,45,49,42,28,83,53,13,0.00,40.00,21,5,30,0.00
2013-8-10,87,64,44,48,41,26,88,51,12,0.00,40.00,20,6,29,0.00
2013-8-11,87,71,49,45,37,28,74,34,12,0.00,40.00,18,6,22,0.00
2013-8-12,80,66,50,47,40,33,70,41,18,0.00,40.00,19,6,25,0.00
2013-8-13,87,67,47,45,34,-100,77,39,10,0.00,40.00,14,5,20,0.00
2013-8-14,92,68,49,41,27,-100,68,31,8,0.00,40.00,16,6,21,0.00
2013-8-15,90,58,47,38,17,-100,67,31,7,0.00,40.00,10,4,13,0.00
2013-8-16,92,64,46,40,27,-100,58,31,9,0.00,40.00,14,4,17,0.00
2013-8-17,91,65,54,55,42,-100,88,50,18,0.00,40.00,11,4,32,0.00
2013-8-18,91,67,48,55,48,41,93,59,20,0.00,40.00,11,4,13,0.00
2013-8-19,91,62,53,52,34,-100,76,49,16,0.00,40.00,16,5,20,0.00
2013-8-20,86,69,55,52,46,-100,79,49,23,0.00,40.00,21,6,27,0.00
2013-8-21,88,71,52,53,48,41,86,50,19,0.00,40.00,15,5,16,0.00
2013-8-22,82,68,59,55,48,45,76,50,28,0.00,40.00,20,5,24,0.00
2013-8-23,67,61,56,57,55,52,91,80,60,0.00,40.00,18,5,25,0.00
2013-8-24,82,62,49,55,47,-100,93,66,24,0.00,40.00,16,5,27,0.00
2013-8-25,79,66,48,51,48,44,86,54,32,0.00,40.00,14,6,17,0.00
2013-8-26,70,65,58,55,52,48,82,62,48,0.00,40.00,10,4,13,0.00
2013-8-27,75,62,55,55,53,51,88,74,43,0.00,40.00,6,3,8,0.00
2013-8-28,85,75,63,61,51,43,85,46,22,0.00,40.00,10,5,14,0.00
2013-8-29,89,70,53,53,50,45,86,53,22,0.00,40.00,7,4,12,0.00
2013-8-30,90,72,53,53,49,44,81,49,20,0.00,40.00,11,4,15,0.00
2013-8-31,89,67,55,56,47,-100,79,53,20,0.00,40.00,10,4,13,0.00
2013-9-1,81,67,58,59,52,48,89,61,32,0.00,40.00,10,3,11,0.00
2013-9-2,83,68,59,61,55,50,92,68,32,0.00,40.00,17,6,23,0.00
2013-9-3,87,68,53,56,52,45,88,61,25,0.00,40.00,14,4,19,0.00
2013-9-4,89,68,52,54,51,44,88,58,21,0.00,40.00,12,4,16,0.00
2013-9-5,88,71,55,56,51,44,86,52,22,0.00,40.00,14,6,20,0.00
2013-9-6,88,72,53,54,46,34,81,44,14,0.00,40.00,16,6,22,0.00
2013-9-7,88,65,55,55,47,-100,90,59,20,0.00,40.00,25,5,28,0.00
2013-9-8,68,58,52,55,52,49,93,82,57,0.00,40.00,13,4,15,0.00
2013-9-9,76,61,49,54,48,41,93,66,29,0.00,40.00,17,4,22,0.00
2013-9-10,73,63,55,56,50,45,80,64,39,0.00,40.00,10,4,13,0.00
2013-9-11,74,64,56,57,53,46,92,70,38,0.00,40.00,21,6,25,0.00
2013-9-12,71,60,54,57,51,46,86,74,42,0.00,40.00,17,7,20,0.00
2013-9-13,69,57,51,55,52,49,92,82,56,0.00,40.00,12,4,16,0.00
2013-9-14,71,57,50,57,49,-100,94,79,45,0.00,40.00,15,3,21,0.00
2013-9-15,74,57,46,53,48,44,94,75,36,0.00,40.00,9,3,13,0.00
2013-9-16,80,61,47,55,48,43,93,67,26,0.00,40.00,10,4,15,0.00
2013-9-17,75,65,54,58,48,36,85,58,26,0.00,40.00,17,6,30,0.00
2013-9-18,72,64,47,41,36,31,52,35,26,0.00,40.00,20,13,34,0.00
2013-9-19,69,50,34,34,30,21,80,49,20,0.00,40.00,11,4,11,0.00
2013-9-20,78,56,33,39,34,27,93,51,15,0.00,40.00,14,6,19,0.00
2013-9-21,78,60,46,44,35,-100,73,46,15,0.00,40.00,17,8,28,0.00
2013-9-22,65,58,49,45,38,31,66,48,32,0.00,40.00,20,5,32,0.00
2013-9-23,66,56,45,37,34,30,69,45,27,0.00,40.00,17,8,28,0.00
2013-9-24,74,54,33,38,32,18,93,52,11,0.00,40.00,18,7,27,0.00
2013-9-25,65,54,36,37,31,25,92,47,21,0.00,40.00,31,12,41,0.00
2013-9-26,48,40,36,38,36,34,94,83,62,0.00,40.00,17,6,21,0.00
2013-9-27,48,38,32,37,33,23,95,80,37,0.00,40.00,16,4,21,0.00
2013-9-28,61,38,26,32,25,-100,95,69,21,0.00,40.00,11,4,15,0.00
2013-9-29,67,47,30,36,29,21,92,58,18,0.00,40.00,20,6,26,0.00
2013-9-30,73,60,49,37,30,23,59,32,17,0.00,40.00,19,9,26,0.00
2013-10-1,67,54,48,34,34,33,58,46,28,0.00,40.00,6,4,10,0.00
2013-10-2,70,54,43,41,33,28,73,47,21,0.00,40.00,28,8,32,0.00
2013-10-3,48,41,32,44,35,22,95,79,40,0.00,40.00,19,7,27,0.00
2013-10-4,44,36,30,32,28,24,96,76,45,0.00,40.00,17,5,21,0.00
2013-10-5,54,38,24,31,27,23,94,68,33,0.00,40.00,14,4,17,0.00
2013-10-6,68,44,27,36,30,26,94,66,25,0.00,40.00,7,4,8,0.00
2013-10-7,74,52,30,39,31,20,93,54,13,0.00,40.00,14,6,21,0.00
2013-10-8,65,56,44,33,25,18,63,32,16,0.00,40.00,19,10,26,0.00
2013-10-9,62,48,35,36,30,26,76,51,26,0.00,40.00,21,7,27,0.00
2013-10-10,52,45,40,40,38,34,89,76,54,0.00,40.00,15,6,21,0.00
2013-10-11,55,42,32,38,31,24,95,69,29,0.00,40.00,16,4,24,0.00
2013-10-12,60,43,27,35,24,-100,92,55,22,0.00,40.00,10,4,16,0.00
2013-10-13,54,47,39,39,36,34,90,68,47,0.00,40.00,13,5,16,0.00
2013-10-14,51,42,32,38,32,25,93,70,35,0.00,40.00,19,8,22,0.00
2013-10-15,47,36,28,31,27,20,93,70,34,0.00,40.00,15,6,19,0.00
2013-10-16,52,36,21,27,24,19,91,63,32,0.00,40.00,9,4,11,0.00
2013-10-17,57,38,25,27,24,20,90,63,26,0.00,40.00,17,4,25,0.00
2013-10-18,55,40,25,29,24,21,92,60,26,0.00,40.00,11,5,14,0.00
2013-10-19,60,38,24,28,21,-100,91,57,23,0.00,40.00,8,4,10,0.00
2013-10-20,61,40,26,27,22,17,84,54,17,0.00,40.00,9,4,13,0.00
2013-10-21,62,45,29,29,26,22,83,51,22,0.00,40.00,8,4,14,0.00
2013-10-22,68,45,28,31,27,23,89,55,18,0.00,40.00,8,4,10,0.00
2013-10-23,69,46,31,28,26,22,78,49,16,0.00,40.00,9,5,10,0.00
2013-10-24,70,47,31,29,26,19,80,50,14,0.00,40.00,10,4,12,0.00
2013-10-25,67,53,36,31,26,18,71,38,15,0.00,40.00,18,6,24,0.00
2013-10-28,60,45,41,34,11,-100,91,48,21,0.00,40.00,26,17,41,0.00
2013-10-29,47,37,34,33,30,27,94,76,45,0.00,40.00,10,5,17,0.00
2013-10-30,41,34,29,33,29,26,91,81,58,0.00,40.00,8,3,10,0.00
2013-10-31,45,40,35,31,29,26,83,64,48,0.00,40.00,9,4,10,0.00
2013-11-1,54,41,33,35,31,27,88,69,35,0.00,40.00,9,4,15,0.00
2013-11-2,64,47,28,31,4,-100,91,29,11,0.00,40.00,19,10,25,0.00
2013-11-3,50,41,23,23,20,16,74,44,28,0.00,40.00,21,8,23,0.00
2013-11-4,34,26,20,26,20,16,93,78,55,0.00,40.00,5,2,7,0.00
2013-11-5,35,26,20,24,18,16,92,75,47,0.00,40.00,5,3,8,0.00
2013-11-6,42,29,19,23,18,16,86,65,35,0.00,40.00,4,3,6,0.00
2013-11-7,56,41,24,28,24,21,90,56,25,0.00,40.00,10,5,11,0.00
2013-11-8,59,46,34,27,22,18,62,39,20,0.00,40.00,12,6,20,0.00
2013-11-19,47,40,33,36,32,26,89,73,48,0.00,40.00,10,5,14,0.00
2013-11-20,41,36,34,37,34,32,95,90,77,0.00,40.00,5,2,6,0.00
2013-11-21,37,28,22,36,22,17,95,78,66,0.00,40.00,28,16,35,0.00
2013-11-22,28,24,17,17,12,2,82,59,37,0.00,40.00,21,8,23,0.00
2013-11-23,33,24,13,20,9,-100,81,59,36,0.00,40.00,14,4,17,0.00
2013-11-24,37,30,24,27,24,17,92,77,53,0.00,40.00,11,4,13,0.00
2013-11-25,33,26,22,25,23,20,91,86,69,0.00,40.00,4,2,5,0.00
2013-12-10,18,7,-8,6,0,-12,83,72,53,0.00,40.00,7,3,9,0.00
2013-12-11,27,11,-1,10,4,-5,88,76,48,0.00,40.00,7,3,8,0.00
2013-12-12,26,11,2,14,7,-1,90,82,57,0.00,40.00,6,3,7,0.00
2013-12-13,24,17,6,17,12,3,90,80,67,0.00,40.00,8,4,11,0.00
2013-12-14,24,16,13,18,2,-100,90,85,75,0.00,40.00,3,2,6,0.00
2013-12-15,25,19,11,18,14,9,90,82,70,0.00,40.00,4,2,5,0.00
2013-12-16,36,27,16,19,18,14,89,69,50,0.00,40.00,6,3,8,0.00
2013-12-17,35,20,10,19,14,7,91,81,49,0.00,40.00,5,2,6,0.00
2013-12-18,42,29,15,30,19,13,93,69,38,0.00,40.00,7,3,9,0.00
2013-12-19,41,35,28,34,29,23,96,82,58,0.00,40.00,18,8,28,0.00
2013-12-20,29,24,17,23,17,13,87,74,58,0.00,40.00,19,9,24,0.00
2013-12-21,27,20,16,22,15,-100,92,86,82,0.00,40.00,4,2,6,0.00
2013-12-22,27,22,14,25,20,12,94,92,85,0.00,40.00,6,3,6,0.00
2013-12-23,38,31,25,31,27,24,95,87,76,0.00,40.00,5,2,5,0.00
2013-12-24,38,31,20,31,21,12,95,69,37,0.00,40.00,26,9,31,0.00
2013-12-25,22,14,7,13,8,4,88,79,66,0.00,40.00,5,2,5,0.00
2013-12-26,34,17,6,14,9,4,90,71,37,0.00,40.00,9,3,9,0.00
2013-12-27,32,20,10,18,14,8,90,76,52,0.00,40.00,5,2,6,0.00
2013-12-28,38,21,17,19,5,-100,91,69,42,0.00,40.00,19,8,30,0.00
2013-12-29,33,21,14,16,13,10,86,71,45,0.00,40.00,15,6,24,0.00
2013-12-30,35,20,11,16,13,8,90,74,42,0.00,40.00,6,3,6,0.00
2013-12-31,36,30,19,27,21,15,88,71,58,0.00,40.00,8,4,10,0.00
2014-1-1,43,32,24,26,22,19,89,67,39,0.00,40.00,8,4,13,0.00
2014-1-2,38,25,15,21,17,13,90,73,47,0.00,40.00,7,4,7,0.00